Airport Name : Asyut Intl

Other Name : Asyut Intl

ICAO : HEAT

IATA : ATZ

FAA :

Latitude : 27.046508

Longitude : 31.011983

Country : Egypt

Local Date and Time : 20 Sep 2020 00:04

 

TAF (Terminal Aerodrome Forecast)

TAF HEAT 191700Z 1918/2024 33008G20KT CAVOK

 

METAR (METeorological Aerodrome Report)

HEAT 192100Z 36006KT CAVOK 30/19 Q1009 NOSIG

HEAT 192000Z 36016KT CAVOK 31/19 Q1009 NOSIG

HEAT 191900Z 34014KT CAVOK 32/18 Q1009 NOSIG

To Charter a Jet Click here.